TimeCET,TemperatureF,Dew PointF,Humidity,Sea Level PressureIn,VisibilityMPH,Wind Direction,Wind SpeedMPH,Gust SpeedMPH,PrecipitationIn,Events,Conditions,WindDirDegrees,DateUTC
12:00 AM,55.4,50.0,82,30.06,-9999.0,NNE,1.2,-,N/A,,Clear,20,2012-11-05 23:00:00
12:30 AM,55.4,51.8,88,30.06,-9999.0,ENE,2.3,-,N/A,,Clear,60,2012-11-05 23:30:00
1:00 AM,55,47,68,30.09,12,North,2.3,,,,Scattered Clouds,0,2012-11-06 00:00:00
1:00 AM,55.4,50.0,82,30.06,-9999.0,NNE,1.2,-,N/A,,Clear,20,2012-11-06 00:00:00
1:30 AM,55.4,51.8,88,30.06,-9999.0,Variable,1.2,-,N/A,,Clear,0,2012-11-06 00:30:00
2:00 AM,55.4,51.8,88,30.06,-9999.0,Calm,Calm,-,N/A,,Clear,0,2012-11-06 01:00:00
2:30 AM,55.4,50.0,82,30.06,-9999.0,Calm,Calm,-,N/A,,Clear,0,2012-11-06 01:30:00
3:00 AM,55.4,51.8,88,30.06,-9999.0,Calm,Calm,-,N/A,,Clear,0,2012-11-06 02:00:00
3:30 AM,55.4,50.0,82,30.06,-9999.0,North,2.3,-,N/A,,Clear,10,2012-11-06 02:30:00
4:00 AM,55.4,51.8,88,30.06,-9999.0,East,1.2,-,N/A,,Clear,80,2012-11-06 03:00:00
4:30 AM,55.4,50.0,82,30.06,-9999.0,Calm,Calm,-,N/A,,Clear,0,2012-11-06 03:30:00
5:00 AM,55.4,51.8,88,30.06,-9999.0,Calm,Calm,-,N/A,,Clear,0,2012-11-06 04:00:00
5:30 AM,55.4,51.8,88,30.06,-9999.0,Variable,1.2,-,N/A,,Clear,0,2012-11-06 04:30:00
6:00 AM,55.4,51.8,88,30.06,-9999.0,Calm,Calm,-,N/A,,Clear,0,2012-11-06 05:00:00
6:30 AM,57.2,46.4,67,30.06,-9999.0,Variable,2.3,-,N/A,,Clear,0,2012-11-06 05:30:00
7:00 AM,57,45,54,30.11,12,SSE,3.5,,,,Partly Cloudy,150,2012-11-06 06:00:00
7:00 AM,59.0,48.2,67,30.09,-9999.0,SSE,2.3,-,N/A,,Clear,150,2012-11-06 06:00:00
7:30 AM,57.2,50.0,77,30.09,-9999.0,Calm,Calm,-,N/A,,Clear,0,2012-11-06 06:30:00
8:00 AM,57.2,50.0,77,30.09,6.2,Calm,Calm,-,N/A,,Partly Cloudy,0,2012-11-06 07:00:00
8:30 AM,57.2,50.0,77,30.12,6.2,Calm,Calm,-,N/A,,Partly Cloudy,0,2012-11-06 07:30:00
9:00 AM,57.2,51.8,82,30.12,6.2,Calm,Calm,-,N/A,,Partly Cloudy,0,2012-11-06 08:00:00
9:30 AM,59.0,51.8,77,30.12,6.2,Calm,Calm,-,N/A,,Partly Cloudy,0,2012-11-06 08:30:00
10:00 AM,60.8,51.8,72,30.12,6.2,NNW,2.3,-,N/A,,Partly Cloudy,330,2012-11-06 09:00:00
10:30 AM,62.6,50.0,63,30.12,6.2,Calm,Calm,-,N/A,,Partly Cloudy,0,2012-11-06 09:30:00
11:00 AM,62.6,50.0,63,30.15,6.2,NW,2.3,-,N/A,,Partly Cloudy,320,2012-11-06 10:00:00
11:30 AM,62.6,50.0,63,30.15,6.2,Variable,1.2,-,N/A,,Partly Cloudy,0,2012-11-06 10:30:00
12:00 PM,62.6,51.8,68,30.15,6.2,Calm,Calm,-,N/A,,Partly Cloudy,0,2012-11-06 11:00:00
12:17 PM,62.6,51.8,68,30.12,6.2,Calm,Calm,-,N/A,Rain,Light Rain,0,2012-11-06 11:17:00
12:30 PM,62.6,53.6,72,30.12,6.2,Calm,Calm,-,N/A,Rain,Light Rain,0,2012-11-06 11:30:00
1:00 PM,62,47,46,30.13,16,NW,2.3,,,Rain,Light Rain,310,2012-11-06 12:00:00
1:00 PM,64.4,50.0,59,30.12,6.2,Calm,Calm,-,N/A,,Partly Cloudy,0,2012-11-06 12:00:00
1:30 PM,64.4,50.0,59,30.12,6.2,North,4.6,-,N/A,,Partly Cloudy,360,2012-11-06 12:30:00
2:00 PM,64.4,48.2,56,30.12,6.2,North,4.6,-,N/A,,Partly Cloudy,350,2012-11-06 13:00:00
2:30 PM,64.4,46.4,52,30.12,6.2,NW,3.5,-,N/A,,Partly Cloudy,320,2012-11-06 13:30:00
3:00 PM,62.6,48.2,59,30.12,6.2,NNW,5.8,-,N/A,,Partly Cloudy,340,2012-11-06 14:00:00
3:30 PM,60.8,50.0,68,30.15,6.2,NNW,10.4,-,N/A,Rain,Light Rain,330,2012-11-06 14:30:00
4:00 PM,60.8,50.0,68,30.15,6.2,NNW,8.1,-,N/A,Rain,Light Rain,330,2012-11-06 15:00:00
4:30 PM,59.0,51.8,77,30.15,6.2,NE,3.5,-,N/A,Rain,Light Rain,50,2012-11-06 15:30:00
5:00 PM,59.0,51.8,77,30.15,6.2,North,1.2,-,N/A,,Light Drizzle,350,2012-11-06 16:00:00
5:30 PM,59.0,51.8,77,30.15,6.2,NW,2.3,-,N/A,,Light Drizzle,310,2012-11-06 16:30:00
6:00 PM,59.0,51.8,77,30.18,6.2,NW,2.3,-,N/A,,Scattered Clouds,310,2012-11-06 17:00:00
6:30 PM,59.0,53.6,82,30.18,6.2,Calm,Calm,-,N/A,,Scattered Clouds,0,2012-11-06 17:30:00
7:00 PM,57,51,74,30.20,12,North,1.2,,,Rain,Light Rain,350,2012-11-06 18:00:00
7:00 PM,57.2,53.6,88,30.18,6.2,Calm,Calm,-,N/A,,Partly Cloudy,0,2012-11-06 18:00:00
7:30 PM,57.2,53.6,88,30.18,6.2,Calm,Calm,-,N/A,,Partly Cloudy,0,2012-11-06 18:30:00
8:00 PM,57.2,53.6,88,30.21,6.2,Calm,Calm,-,N/A,,Partly Cloudy,0,2012-11-06 19:00:00
8:30 PM,55.4,53.6,94,30.21,6.2,Variable,1.2,-,N/A,,Partly Cloudy,0,2012-11-06 19:30:00
9:00 PM,55.4,53.6,94,30.21,6.2,Variable,2.3,-,N/A,,Partly Cloudy,0,2012-11-06 20:00:00
9:30 PM,53.6,51.8,94,30.21,6.2,Variable,1.2,-,N/A,,Partly Cloudy,0,2012-11-06 20:30:00
10:00 PM,53.6,51.8,94,30.24,6.2,Variable,1.2,-,N/A,,Partly Cloudy,0,2012-11-06 21:00:00
10:30 PM,53.6,51.8,94,30.24,6.2,Variable,1.2,-,N/A,,Partly Cloudy,0,2012-11-06 21:30:00
11:00 PM,51.8,51.8,100,30.24,6.2,Calm,Calm,-,N/A,,Partly Cloudy,0,2012-11-06 22:00:00
11:30 PM,53.6,51.8,94,30.24,6.2,NE,2.3,-,N/A,,Partly Cloudy,50,2012-11-06 22:30:00